Main page
METAR-TAF:

METAR-TAF

Airports :

Salak Airport

Maroua, Cameroon

latitude: 10-27N, longitude: 014-15E, elevation: 423 m

Current weather observation

The report was made 31 minutes ago, at 12:00 UTC
Wind 9 kt from the Southwest, varying between South and West
Temperature 36°C
Humidity 42%
Pressure 1012 hPa
Visibility 10 km or more
no clouds below 1500 m and no cumulonimbus

METAR: FKKL 121200Z 22009KT 180V260 CAVOK 36/21 Q1012

Time: 13:31 (12:31 UTC)

Forecast

The report was made 7 hours and 31 minutes ago, at 05:00 UTC
Forecast valid from 12 at 06 UTC to 12 at 18 UTC
Wind 7 kt from the South/Southeast
Visibility 10 km or more
Few clouds at a height of 4000 ft
Probability 40%
from 12 at 09 UTC to 12 at 13 UTC
Wind 15 kt from variable directions
Visibility: 4000 m
Scattered clouds at a height of 3500 ft
Few clouds at a height of 4000 ft, Cumulonimbus.
thunderstorm, rain

TAF: FKKL 120500Z 1206/1218 16007KT 9999 FEW040 PROB40 1209/1213 VRB15KT 4000 TSRA SCT035 FEW040CB

Weather observations and forecasts of more than 4000 airports (METAR and TAF reports).

The available stations are represented by yellow and red dots on the map.

Hover mouse over dot to see the name of the station.

Then click to see weather observations and forecasts.

To change the map : click on the green buttons with a black cross to zoom in, on the green button with a dash to zoom out, or on the green arrows for adjacent maps.


METAR-TAF: